createdAt,value
2023-04-01T00:02:48.595Z,99416.14
2023-04-01T00:06:44.476Z,99425.86
2023-04-01T00:10:42.659Z,99430.30
2023-04-01T00:15:11.853Z,99427.23
2023-04-01T00:19:05.208Z,99429.91
2023-04-01T00:23:39.294Z,99433.48
2023-04-01T00:27:59.190Z,99436.55
2023-04-01T00:36:31.790Z,99429.18
2023-04-01T00:40:55.305Z,99431.71
2023-04-01T00:45:22.960Z,99430.11
2023-04-01T00:49:50.472Z,99430.31
2023-04-01T00:54:10.135Z,99433.27
2023-04-01T00:58:37.756Z,99434.48
2023-04-01T01:02:50.555Z,99436.45
2023-04-01T01:42:37.730Z,99460.44
2023-04-01T01:47:06.595Z,99467.94
2023-04-01T01:51:36.012Z,99463.99
2023-04-01T01:56:05.819Z,99470.60
2023-04-01T02:00:27.862Z,99480.08
2023-04-01T02:35:07.754Z,99493.66
2023-04-01T02:39:36.583Z,99500.09
2023-04-01T02:58:02.027Z,99520.65
2023-04-01T03:02:20.040Z,99522.67
2023-04-01T03:06:49.434Z,99536.64
2023-04-01T03:15:14.441Z,99543.70
2023-04-01T03:19:24.271Z,99550.23
2023-04-01T03:23:45.645Z,99558.42
2023-04-01T03:42:59.121Z,99577.70
2023-04-01T03:47:29.862Z,99583.08
2023-04-01T03:51:51.360Z,99589.38
2023-04-01T04:13:11.317Z,99616.52
2023-04-01T04:17:40.181Z,99626.11
2023-04-01T04:26:09.682Z,99629.86
2023-04-01T04:30:31.161Z,99631.34
2023-04-01T04:52:13.172Z,99658.05
2023-04-01T04:56:30.271Z,99663.11
2023-04-01T05:00:36.119Z,99669.21
2023-04-01T05:08:35.159Z,99675.23
2023-04-01T05:12:48.634Z,99681.17
2023-04-01T05:16:54.808Z,99683.79
2023-04-01T05:21:27.666Z,99688.48
2023-04-01T05:25:56.373Z,99689.38
2023-04-01T05:30:14.128Z,99692.33
2023-04-01T05:34:16.674Z,99699.73
2023-04-01T05:38:19.839Z,99701.86
2023-04-01T05:42:38.661Z,99710.88
2023-04-01T05:46:57.648Z,99710.67
2023-04-01T05:51:26.987Z,99717.13
2023-04-01T05:55:48.856Z,99717.20
2023-04-01T05:59:46.560Z,99719.80
2023-04-01T06:03:27.868Z,99725.47
2023-04-01T06:07:57.607Z,99731.54
2023-04-01T06:42:51.008Z,99755.29
2023-04-01T06:46:49.854Z,99761.90
2023-04-01T06:51:27.836Z,99766.48
2023-04-01T06:55:26.161Z,99769.38
2023-04-01T07:00:01.741Z,99773.43
2023-04-01T07:21:24.852Z,99798.44
2023-04-01T07:25:21.783Z,99807.11
2023-04-01T07:29:50.560Z,99810.61
2023-04-01T07:33:54.145Z,99816.17
2023-04-01T07:38:23.843Z,99821.88
2023-04-01T07:42:43.908Z,99829.42
2023-04-01T07:47:01.754Z,99833.56
2023-04-01T07:51:34.715Z,99840.44
2023-04-01T08:09:44.393Z,99866.33
2023-04-01T08:18:57.635Z,99876.80
2023-04-01T08:23:46.345Z,99877.20
2023-04-01T08:27:56.105Z,99878.04
2023-04-01T08:32:42.146Z,99878.98
2023-04-01T08:37:09.961Z,99884.17
2023-04-01T08:41:41.951Z,99889.64
2023-04-01T08:46:12.816Z,99890.86
2023-04-01T08:50:39.115Z,99895.82
2023-04-01T09:38:53.223Z,99946.83
2023-04-01T09:42:56.215Z,99956.35
2023-04-01T09:47:14.518Z,99967.69
2023-04-01T09:51:34.294Z,99971.17
2023-04-01T09:55:35.570Z,99979.05
2023-04-01T10:00:06.291Z,99983.63
2023-04-01T10:04:33.891Z,99985.70
2023-04-01T10:09:33.933Z,99991.21
2023-04-01T10:22:45.670Z,99995.25
2023-04-01T10:40:16.757Z,100002.34
2023-04-01T10:44:31.526Z,100013.28
2023-04-01T10:49:05.701Z,100020.05
2023-04-01T10:53:42.364Z,100020.56
2023-04-01T10:58:40.499Z,100025.58
2023-04-01T11:03:22.974Z,100030.48
2023-04-01T11:08:05.882Z,100031.85
2023-04-01T11:12:49.396Z,100040.81
2023-04-01T11:16:56.148Z,100041.25
2023-04-01T11:21:16.564Z,100045.20
2023-04-01T11:25:40.220Z,100054.84
2023-04-01T11:30:08.404Z,100060.37
2023-04-01T11:34:39.282Z,100064.88
2023-04-01T12:23:39.232Z,100107.98
2023-04-01T12:28:07.073Z,100120.26
2023-04-01T12:32:57.325Z,100119.70
2023-04-01T12:37:16.827Z,100126.88
2023-04-01T12:56:15.383Z,100154.34
2023-04-01T13:00:41.253Z,100160.52
2023-04-01T13:05:13.636Z,100162.99
2023-04-01T13:09:54.547Z,100167.73
2023-04-01T13:36:35.594Z,100209.49
2023-04-01T13:41:16.695Z,100216.08
2023-04-01T13:45:34.940Z,100227.97
2023-04-01T13:49:55.019Z,100229.48
2023-04-01T14:24:22.671Z,100268.33
2023-04-01T14:29:08.662Z,100276.20
2023-04-01T14:33:47.333Z,100280.38
2023-04-01T14:38:19.682Z,100286.13
2023-04-01T14:42:57.427Z,100287.16
2023-04-01T14:47:35.235Z,100292.64
2023-04-01T14:52:04.435Z,100297.53
2023-04-01T15:23:16.488Z,100346.67
2023-04-01T15:27:51.050Z,100353.51
2023-04-01T15:32:21.742Z,100361.48
2023-04-01T15:36:40.920Z,100364.16
2023-04-01T15:41:15.194Z,100373.57
2023-04-01T16:07:24.574Z,100420.13
2023-04-01T16:12:15.315Z,100419.29
2023-04-01T16:17:00.737Z,100431.09
2023-04-01T17:01:53.705Z,100521.36
2023-04-01T17:06:33.896Z,100531.16
2023-04-01T17:11:04.585Z,100539.70
2023-04-01T17:15:34.941Z,100548.95
2023-04-01T17:20:19.215Z,100557.02
2023-04-01T17:24:58.880Z,100572.52
2023-04-01T17:29:47.077Z,100577.01
2023-04-01T17:34:07.139Z,100579.81
2023-04-01T17:56:27.820Z,100615.07
2023-04-01T18:01:02.996Z,100627.83
2023-04-01T18:05:17.320Z,100637.06
2023-04-01T18:09:51.947Z,100644.88
2023-04-01T18:14:14.893Z,100652.52
2023-04-01T18:18:37.696Z,100658.16
2023-04-01T18:32:20.595Z,100684.14
2023-04-01T18:37:08.022Z,100695.09
2023-04-01T18:50:36.265Z,100715.61
2023-04-01T18:55:02.846Z,100721.85
2023-04-01T18:59:34.454Z,100731.77
2023-04-01T19:03:55.479Z,100732.08
2023-04-01T19:08:41.521Z,100739.42
2023-04-01T19:17:51.907Z,100751.83
2023-04-01T19:22:19.052Z,100761.80
2023-04-01T19:45:33.643Z,100789.12
2023-04-01T19:50:14.801Z,100798.02
2023-04-01T19:54:55.454Z,100809.51
2023-04-01T19:59:27.620Z,100820.09
2023-04-01T20:04:00.266Z,100826.12
2023-04-01T20:26:24.162Z,100871.39
2023-04-01T20:31:17.487Z,100875.86
2023-04-01T20:35:38.938Z,100888.84
2023-04-01T20:40:04.875Z,100893.08
2023-04-01T21:04:00.651Z,100910.27
2023-04-01T21:08:46.773Z,100914.89
2023-04-01T21:13:06.950Z,100923.02
2023-04-01T21:37:23.309Z,100958.23
2023-04-01T21:41:58.126Z,100958.64
2023-04-01T21:46:32.755Z,100963.23
2023-04-01T21:51:03.866Z,100965.70
2023-04-01T22:08:54.851Z,100991.73
2023-04-01T22:13:25.313Z,100996.27
2023-04-01T22:17:52.523Z,101003.42
2023-04-01T22:22:01.840Z,101006.05
2023-04-01T22:26:12.030Z,101013.03
2023-04-01T22:43:57.830Z,101029.13
2023-04-01T22:48:34.485Z,101037.93
2023-04-01T22:52:55.727Z,101047.38
2023-04-01T22:57:37.196Z,101048.45
2023-04-01T23:01:57.002Z,101054.88
2023-04-01T23:06:18.944Z,101056.59
2023-04-01T23:10:50.342Z,101062.69
2023-04-01T23:15:38.386Z,101066.17
2023-04-01T23:37:15.897Z,101089.38
2023-04-01T23:41:46.096Z,101095.91
2023-04-01T23:46:17.501Z,101100.09
